• Join FlightAware (Why Join?)
  • Login
  • US Flag 
02:09AM EDT


 

Airport Tracker/Info


-or-


 

Live Flight TrackerFlight Track Log ✈ ASQ6151 ✈ 05-May-2013 ✈ KROA - KORD

Flight Track Log - Related Links

Times and Time Zones

All times are in EDT time to prevent confusion due to time zone crossing. See the ASQ6151 flight status page for this flight to view local times or setup timezone preferences in your user account.

Time Position Orientation Groundspeed Altitude Reporting Facility
EDT Latitude Longitude Course Direction KTS MPH feet Rate Location/Type
06:25PM 37.4689 -80.1031 290° West 287 330 9,900  Level Washington Center
06:26PM 37.5022 -80.2125 291° West 316 364 11,200 1,440 Climbing Washington Center
06:27PM 37.5394 -80.3325 291° West 344 396 12,900 1,800 Climbing Washington Center
06:28PM 37.7030 -80.9383 294° West  Level FlightAware Approximate
06:28PM 37.5781 -80.4581 291° West 367 422 14,800  Level Washington Center
06:29PM 37.7476 -81.0631 294° West  Level FlightAware Approximate
06:30PM 37.7878 -81.1902 290° West  Level FlightAware Approximate
06:30PM 37.6514 -80.6908 292° West 382 440 18,100  Level Indianapolis Center
06:31PM 37.8246 -81.3191 290° West  Level FlightAware Approximate
06:31PM 37.6969 -80.8411 291° West 391 450 19,700  Level Indianapolis Center
06:32PM 37.7353 -80.9664 291° West 392 451 21,400 1,500 Climbing Indianapolis Center
06:33PM 37.7725 -81.0936 290° West 396 456 22,900 1,680 Climbing Indianapolis Center
06:35PM 37.8086 -81.2475 287° West 393 452 24,900 1,740 Climbing Indianapolis Center
06:36PM 37.8383 -81.3825 286° West 393 452 26,500 1,500 Climbing Indianapolis Center
06:37PM 37.8667 -81.5153 285° West 391 450 28,100 1,500 Climbing Indianapolis Center
06:38PM 37.8950 -81.6481 285° West 389 448 29,700 1,200 Climbing Indianapolis Center
06:39PM 37.9236 -81.7806 285° West 389 448 30,600 960 Climbing Indianapolis Center
06:40PM 37.9528 -81.9197 285° West 402 463 31,800 1,080 Climbing Indianapolis Center
06:41PM 37.9825 -82.0603 285° West 409 471 32,900 720 Climbing Indianapolis Center
06:42PM 38.0181 -82.2331 285° West 427 491 33,300 480 Climbing Indianapolis Center
06:43PM 38.0500 -82.3844 285° West 442 509 34,000 300 Climbing Indianapolis Center
06:44PM 38.0825 -82.5408 285° West 456 525 34,000  Level Indianapolis Center
06:45PM 38.1164 -82.7044 285° West 474 545 34,000  Level Indianapolis Center
06:46PM 38.1508 -82.8747 284° West 491 565 34,000  Level Indianapolis Center
06:47PM 38.2144 -83.0653 293° West 502 578 34,000  Level Indianapolis Center
06:48PM 38.2714 -83.2278 294° West 504 580 34,000  Level Indianapolis Center
06:49PM 38.3303 -83.3928 295° West 510 587 34,000  Level Indianapolis Center
06:50PM 38.3881 -83.5567 294° West 508 585 34,000  Level Indianapolis Center
06:51PM 38.4456 -83.7239 294° West 512 589 34,000  Level Indianapolis Center
06:52PM 38.5042 -83.8894 294° West 513 590 34,000  Level Indianapolis Center
06:53PM 38.5717 -84.0844 294° West 515 593 34,000  Level Indianapolis Center
06:54PM 38.6297 -84.2550 294° West 523 602 34,000  Level Indianapolis Center
06:56PM 38.7209 -84.4021 318° Northwest  Level FlightAware Approximate
06:56PM 38.8258 -84.5133 318° Northwest 523 602 34,000  Level Indianapolis Center
06:57PM 38.9344 -84.6406 318° Northwest 524 603 34,000  Level Indianapolis Center
06:58PM 39.0622 -84.7883 318° Northwest 523 602 34,000  Level Indianapolis Center
06:59PM 39.1633 -84.9069 318° Northwest 509 586 34,000  Level Indianapolis Center
07:00PM 39.2664 -85.0278 318° Northwest 504 580 34,000 -420 Level Indianapolis Center
07:01PM 39.3750 -85.1358 322° Northwest 502 578 33,200 -1,500 Descending Indianapolis Center
07:02PM 39.4986 -85.1983 339° North 485 558 31,000 -2,520 Descending Indianapolis Center
07:03PM 39.6478 -85.2697 340° North 479 551 28,100 -1,500 Descending Indianapolis Center
07:04PM 39.7714 -85.3292 340° North 478 550 28,000 -720 Descending Indianapolis Center
07:07PM 40.0108 -85.4433 340° North 461 531 26,000 -660 Descending Indianapolis Center
07:08PM 40.1258 -85.5011 339° North 449 517 26,000 -300 Level Indianapolis Center
07:08PM 40.1722 -85.5208 342° North 449 517 25,600 -1,200 Descending Chicago Center
07:09PM 40.2858 -85.5769 339° North 442 509 24,400 -780 Descending Chicago Center
07:10PM 40.3789 -85.6803 320° Northwest 448 516 24,000 -240 Descending Chicago Center
07:11PM 40.4778 -85.8286 311° West 454 522 24,000  Level Chicago Center
07:12PM 40.5611 -85.9536 311° West 458 527 24,000 -300 Level Chicago Center
07:13PM 40.6422 -86.0767 311° West 451 519 23,400 -900 Descending Chicago Center
07:14PM 40.7250 -86.2019 311° West 448 516 22,200 -720 Descending Chicago Center
07:15PM 40.8058 -86.3261 311° West 445 512 22,000 -120 Descending Chicago Center
07:16PM 40.8872 -86.4508 311° West 448 516 22,000 -540 Level Chicago Center
07:17PM 40.9678 -86.5750 311° West 445 512 21,000 -1,740 Descending Chicago Center
07:18PM 41.0594 -86.7175 310° West 427 491 18,500 -2,340 Descending Chicago Center
07:19PM 41.1403 -86.8414 311° West 416 479 16,200 -2,220 Descending Chicago Center
07:20PM 41.2092 -86.9492 310° West 393 452 14,000 -2,160 Descending Chicago Center
07:21PM 41.2758 -87.0561 310° West 381 438 11,800 -1,500 Descending Chicago Center
07:22PM 41.3417 -87.1586 311° West 369 425 11,000 -480 Descending Chicago Center
07:23PM 41.3833 -87.2167 314° West 363 418 11,100 60 Climbing Chicago TRACON
07:24PM 41.4667 -87.3000 323° Northwest 372 428 11,100  Level Chicago TRACON
07:25PM 41.5333 -87.4000 312° West 369 425 11,100 -120 Level Chicago TRACON
07:25PM 41.5822 -87.4461 325° Northwest 364 419 11,000 -180 Descending Chicago Center
07:26PM 41.6569 -87.5283 321° Northwest 355 409 10,900 -960 Descending Chicago Center
07:28PM 41.7186 -87.5994 319° Northwest 309 356 9,100 -1,860 Descending Chicago Center
07:28PM 41.7500 -87.6333 321° Northwest 295 339 8,400 -1,020 Descending Chicago TRACON
07:30PM 41.8239 -87.7697 306° West 290 334 7,000 -720 Descending Chicago Center
07:30PM 41.8167 -87.8000 252° West 280 322 7,000 -420 Level Chicago TRACON
07:31PM 41.8000 -87.8833 255° West 250 288 6,500 -720 Descending Chicago TRACON
07:32PM 41.8053 -87.9456 277° West 247 284 5,800 -1,140 Descending Chicago Center
07:33PM 41.8403 -88.0175 303° West 255 293 4,500 -1,500 Descending Chicago Center
07:34PM 41.8900 -87.9758 32° Northeast 229 264 2,800 -1,500 Descending Chicago Center
07:35PM 41.9292 -87.9278 42° Northeast 184 212 1,400 -780 Descending Chicago Center
07:36PM 41.9556 -87.8942 43° Northeast 175 201 1,300 -120 Descending Chicago Center